Airfield :







YOU CAN JOIN US ON...

 
LOGIN :

Register | Disclaimer

   EN    FR    IT 

 









Legend :    VFR   Marginal VFR   IFR   Intensive IFR   Very Intensive IFR
Visi :
Ceiling :
>= 8 km
>= 3000ft
5 to 8 km
1000 to 3000 ft
1500m to 5 km
500 to 1000 ft
800 to 1500m
200 to 500 ft
< 800m
< 200 ft
Symbols :   Thunderstorms  Fog  Heavy snow  Heavy precipitations  Wind > 20 kt






- Airport Elevation : 36 ft
- IATA code : PTP


TFFR - Le Raizet

CURRENT METAR :
  • 232030Z AUTO 05011KT 9999 FEW024/// SCT030/// BKN060/// ///TCU 27/22 Q1013 TEMPO 2500 SCT015CB

EXPIRED METARs :
  • 232000Z AUTO 06009KT 020V090 9999 SCT024 SCT037 OVC064 27/22 Q1013 TEMPO 2500 SCT015CB
  • 231930Z AUTO 07010KT 9999 SCT026/// OVC062/// ///TCU 27/22 Q1013 TEMPO 2500 SCT015CB
  • 231900Z AUTO 06012KT 010V090 9999 BKN029/// BKN038/// OVC070/// ///TCU 28/22 Q1013 TEMPO 2500 SCT015CB
  • 231830Z AUTO 08010KT 050V120 9999 SCT031 SCT038 BKN058 29/22 Q1013 TEMPO 2500 SCT015CB
  • 231800Z AUTO 06011KT 030V090 9999 SCT029/// BKN060/// BKN082/// ///TCU 28/21 Q1014 TEMPO 2500 SCT015CB
  • 231730Z AUTO 06012KT 030V100 9999 BKN030/// BKN037/// BKN048/// ///CB 28/21 Q1014 TEMPO 2500
  • 231700Z AUTO 06011KT 010V090 9999 FEW029/// OVC054/// ///TCU 28/21 Q1015 TEMPO 2500 SHRA SCT015CB BKN020
  • 231630Z AUTO 06013KT 020V090 9999 SCT027/// BKN039/// BKN074/// ///CB 27/21 Q1015 TEMPO 2500 SHRA

TAF TAF TFFR
Valid from the 23 at 18:00 until the 24 at 18:00 UTC


231600Z 2318/2418 08008KT 9999 SCT025 SCT035
TEMPO 2318/2418 4000 SHRA SCT018TCU BKN025
PROB30
TEMPO 2318/2406 2500 SCT015CB
TTZP FIR / North America



MET'MAP, your aeronautical weather chart ! - Copyright ORBIFLY December 2007 - Disclaimer

ORBIFLY MET'MAP TEAM :

Programming & Development : Alexandra Zaïnal
Original concept : Baudouin d'Aumeries
Technical & hardware support : Manuel Goepfert
Assistance : Marc-Olivier Méhu




SOURCES & CREDITS :

   NOAA